METAR Data
IDs: Format: Raw Decoded Include TAF

Data at: 2118 UTC 24 Mar 2019

KECU 242055Z AUTO 16007KT 10SM OVC020 21/16 A3011 RMK AO2
KECU 242035Z AUTO 16007KT 140V200 10SM OVC019 21/16 A3011 RMK AO2
KECU 242015Z AUTO 17005G10KT 10SM OVC015 21/17 A3012 RMK AO2
KECU 241955Z AUTO VRB04KT 10SM OVC013 20/17 A3013 RMK AO2
KECU 241935Z AUTO 21004KT 10SM OVC012 20/17 A3014 RMK AO2
KECU 241915Z AUTO 17007KT 10SM BKN009 OVC013 19/17 A3014 RMK AO2
KECU 241855Z AUTO 16008KT 10SM BKN006 BKN010 OVC013 19/17 A3014 RMK AO2
KECU 241835Z AUTO 15006KT 9SM OVC005 18/17 A3015 RMK AO2
KECU 241815Z AUTO 16005G11KT 4SM BR OVC003 18/17 A3016 RMK AO2
KECU 241755Z AUTO 17005KT 2 1/2SM BR OVC003 18/17 A3017 RMK AO2
KECU 241735Z AUTO 15007KT 1/2SM FG OVC003 17/17 A3017 RMK AO2
KECU 241715Z AUTO 16008KT M1/4SM FG OVC002 17/17 A3017 RMK AO2
KECU 241655Z AUTO 15006KT M1/4SM FG OVC002 17/17 A3017 RMK AO2
KECU 241635Z AUTO 15006KT 1/4SM FG OVC003 17/17 A3018 RMK AO2
KECU 241615Z AUTO 16005KT M1/4SM FG OVC003 17/17 A3017 RMK AO2
KECU 241555Z AUTO 17008KT 1/2SM BR OVC003 17/17 A3018 RMK AO2
KECU 241535Z AUTO 16008KT 1/2SM FG OVC003 17/17 A3017 RMK AO2
KECU 241515Z AUTO 16007KT M1/4SM FG OVC002 16/16 A3017 RMK AO2
KECU 241455Z AUTO 17006G11KT M1/4SM FG OVC002 16/16 A3016 RMK AO2
KECU 241435Z AUTO 16011KT M1/4SM FG OVC002 16/16 A3015 RMK AO2
KECU 241415Z AUTO 16010G16KT M1/4SM FG OVC002 16/16 A3014 RMK AO2
KECU 241355Z AUTO 16010KT M1/4SM FG OVC002 16/16 A3013 RMK AO2
KECU 241335Z AUTO 16008G14KT 1/4SM FG OVC003 16/16 A3012 RMK AO2
KECU 241315Z AUTO 16009KT 1/4SM FG OVC002 16/16 A3012 RMK AO2
KECU 241255Z AUTO 16010KT 1/4SM FG OVC002 16/16 A3012 RMK AO2
KECU 241235Z AUTO 16010G15KT 1/4SM FG OVC002 16/16 A3011 RMK AO2
KECU 241215Z AUTO 16010KT 1/4SM FG OVC002 16/16 A3011 RMK AO2
KECU 241155Z AUTO 15009KT M1/4SM FG OVC002 16/16 A3010 RMK AO2
KECU 241135Z AUTO 15009KT M1/4SM FG OVC002 16/16 A3010 RMK AO2
KECU 241115Z AUTO 16009KT 1/4SM FG OVC002 16/16 A3010 RMK AO2
KECU 241055Z AUTO 16010G17KT 1SM BR OVC003 16/16 A3009 RMK AO2
KECU 241035Z AUTO 17011KT 1 1/2SM BR OVC003 16/16 A3009 RMK AO2
KECU 241015Z AUTO 16010KT 2SM BR OVC003 16/16 A3009 RMK AO2
KECU 240955Z AUTO 17011KT 1SM BR OVC003 16/16 A3009 RMK AO2
KECU 240935Z AUTO 16011KT 3/4SM BR OVC002 16/16 A3009 RMK AO2
KECU 240915Z AUTO 16010G16KT 1/4SM FG OVC002 16/16 A3009 RMK AO2
KECU 240855Z AUTO 16010KT 1/2SM FG OVC002 16/16 A3009 RMK AO2
KECU 240835Z AUTO 16011G17KT 1 1/2SM BR OVC003 16/16 A3009 RMK AO2
KECU 240815Z AUTO 16012G18KT 4SM BR OVC003 16/16 A3009 RMK AO2
KECU 240755Z AUTO 16011G17KT 5SM BR OVC003 16/16 A3010 RMK AO2
KECU 240735Z AUTO 16011G18KT 7SM OVC004 16/16 A3010 RMK AO2
KECU 240715Z AUTO 16014G19KT 10SM OVC005 17/16 A3010 RMK AO2
KECU 240655Z AUTO 16013G18KT 10SM OVC006 17/16 A3011 RMK AO2
KECU 240635Z AUTO 15012KT 10SM BKN007 OVC010 17/16 A3011 RMK AO2
KECU 240615Z AUTO 15011G20KT 10SM BKN008 OVC015 17/16 A3011 RMK AO2
KECU 240555Z AUTO 16013G18KT 10SM OVC009 17/16 A3011 RMK AO2
KECU 240535Z AUTO 15014G22KT 10SM BKN008 BKN011 OVC018 17/16 A3011 RMK AO2
KECU 240515Z AUTO 15014G21KT 10SM BKN008 BKN012 OVC023 17/16 A3011 RMK AO2
KECU 240455Z AUTO 15015KT 10SM BKN009 BKN013 OVC020 17/16 A3010 RMK AO2
KECU 240435Z AUTO 15015G20KT 10SM BKN010 BKN013 OVC019 17/16 A3011 RMK AO2
KECU 240415Z AUTO 15014KT 10SM BKN013 OVC019 17/16 A3011 RMK AO2
KECU 240355Z AUTO 15015G20KT 10SM OVC014 18/16 A3010 RMK AO2
KECU 240335Z AUTO 15012G17KT 10SM BKN014 18/15 A3010 RMK AO2
KECU 240315Z AUTO 14008KT 10SM FEW015 17/15 A3010 RMK AO2
KECU 240255Z AUTO 14010KT 10SM CLR 17/15 A3009 RMK AO2
KECU 240235Z AUTO 14010KT 10SM CLR 18/15 A3008 RMK AO2
KECU 240215Z AUTO 14009G15KT 10SM CLR 18/15 A3008 RMK AO2
KECU 240155Z AUTO 14009G16KT 10SM CLR 18/15 A3008 RMK AO2
KECU 240135Z AUTO 14011G16KT 10SM CLR 18/15 A3007 RMK AO2
KECU 240115Z AUTO 14009KT 10SM CLR 19/15 A3007 RMK AO2
KECU 240055Z AUTO 15011KT 10SM CLR 19/14 A3008 RMK AO2
KECU 240035Z AUTO 15011KT 10SM CLR 20/14 A3008 RMK AO2
KECU 240015Z AUTO 16013KT 10SM CLR 21/14 A3008 RMK AO2
KECU 232355Z AUTO 16013KT 10SM CLR 21/14 A3007 RMK AO2
KECU 232335Z AUTO 15009KT 10SM CLR 22/14 A3006 RMK AO2
KECU 232315Z AUTO 16009KT 10SM CLR 22/13 A3005 RMK AO2
KECU 232255Z AUTO 14008KT 10SM CLR 23/13 A3004 RMK AO2
KECU 232235Z AUTO 17009KT 10SM CLR 23/12 A3004 RMK AO2
KECU 232215Z AUTO 15007G13KT 10SM CLR 23/13 A3004 RMK AO2
KECU 232155Z AUTO 15009G14KT 10SM FEW046 24/13 A3004 RMK AO2
KECU 232135Z AUTO VRB06G11KT 10SM CLR 24/13 A3005 RMK AO2
KECU 232115Z AUTO 15011KT 10SM FEW045 24/13 A3005 RMK AO2
KECU 232055Z AUTO 16009KT 10SM SCT040 SCT045 23/13 A3006 RMK AO2
KECU 232035Z AUTO 16011KT 10SM BKN040 23/14 A3007 RMK AO2
KECU 232015Z AUTO 16011KT 10SM SCT040 23/14 A3008 RMK AO2
KECU 231955Z AUTO 16007KT 140V200 10SM FEW034 SCT041 23/14 A3009 RMK AO2
KECU 231935Z AUTO 14006G13KT 10SM BKN033 BKN041 22/14 A3010 RMK AO2
KECU 231915Z AUTO 21006G12KT 10SM SCT032 SCT041 22/14 A3011 RMK AO2
KECU 231855Z AUTO 21005KT 10SM BKN030 BKN036 BKN041 21/14 A3012 RMK AO2
KECU 231835Z AUTO 22007KT 190V260 10SM SCT023 BKN030 21/14 A3013 RMK AO2
KECU 231815Z AUTO 19006KT 10SM FEW017 SCT022 BKN030 20/15 A3014 RMK AO2
KECU 231755Z AUTO 19008KT 160V240 10SM BKN016 BKN022 BKN032 20/15 A3014 RMK AO2
KECU 231735Z AUTO 25006KT 10SM BKN014 OVC021 18/15 A3015 RMK AO2
KECU 231715Z AUTO 19004G10KT 10SM BKN013 OVC019 18/15 A3015 RMK AO2
KECU 231655Z AUTO VRB05KT 10SM SCT007 BKN011 OVC016 18/15 A3015 RMK AO2
KECU 231635Z AUTO 17007KT 10SM BKN006 OVC010 17/15 A3014 RMK AO2
KECU 231615Z AUTO 17008KT 5SM BR OVC004 16/15 A3014 RMK AO2 LTG DSNT NE
KECU 231555Z AUTO 18005G11KT 4SM BR OVC004 16/15 A3014 RMK AO2
KECU 231535Z AUTO 18006KT 2 1/2SM BR OVC003 15/15 A3013 RMK AO2
KECU 231515Z AUTO 18007G14KT 1/2SM BR OVC003 15/15 A3013 RMK AO2
KECU 231455Z AUTO 18010KT 3SM BR OVC003 15/15 A3012 RMK AO2
KECU 231435Z AUTO 19010G16KT 2SM BR OVC003 15/15 A3012 RMK AO2
KECU 231415Z AUTO 17011KT 3SM BR OVC003 15/15 A3011 RMK AO2 LTG DSNT NE
KECU 231355Z AUTO 18008G15KT 1 3/4SM BR OVC003 15/15 A3010 RMK AO2
KECU 231335Z AUTO 17009KT 1 1/4SM BR OVC003 15/15 A3010 RMK AO2
KECU 231315Z AUTO 17012KT 1 3/4SM BR OVC003 15/14 A3009 RMK AO2
KECU 231255Z AUTO 16011G16KT 2SM BR OVC003 15/14 A3008 RMK AO2
KECU 231235Z AUTO 16011G16KT 2SM BR OVC003 15/14 A3008 RMK AO2
KECU 231215Z AUTO 17012KT 3SM BR OVC004 15/14 A3008 RMK AO2
KECU 231155Z AUTO 16012G18KT 2 1/2SM BR OVC004 15/14 A3008 RMK AO2
KECU 231135Z AUTO 17010KT 2 1/2SM BR OVC005 15/14 A3008 RMK AO2
KECU 231115Z AUTO 17010KT 3SM BR OVC005 15/14 A3008 RMK AO2
KECU 231055Z AUTO 18010G16KT 4SM BR OVC007 15/14 A3008 RMK AO2
KECU 231035Z AUTO 19010G15KT 7SM OVC007 15/14 A3008 RMK AO2
KECU 231015Z AUTO 19008G13KT 10SM OVC008 16/14 A3008 RMK AO2
KECU 230955Z AUTO 18012G18KT 10SM OVC008 16/14 A3007 RMK AO2
KECU 230935Z AUTO 18010G16KT 160V230 10SM OVC009 16/14 A3006 RMK AO2